createdAt,value
2023-05-15T00:20:16.990Z,11.05
2023-05-15T00:21:17.113Z,11.05
2023-05-15T00:22:16.806Z,11.02
2023-05-15T00:23:16.726Z,10.98
2023-05-15T00:24:16.656Z,10.99
2023-05-15T00:25:16.567Z,11.05
2023-05-15T00:26:16.492Z,11.02
2023-05-15T00:27:16.447Z,11.06
2023-05-15T00:28:16.358Z,11.00
2023-05-15T00:29:16.248Z,11.02
2023-05-15T00:30:16.163Z,11.02
2023-05-15T00:31:16.103Z,11.03
2023-05-15T00:32:16.003Z,10.95
2023-05-15T00:33:15.921Z,10.96
2023-05-15T00:34:15.843Z,10.93
2023-05-15T00:35:58.255Z,10.98
2023-05-15T00:36:58.159Z,10.95
2023-05-15T00:37:58.093Z,11.03
2023-05-15T00:38:58.001Z,11.08
2023-05-15T00:39:57.917Z,11.00
2023-05-15T00:40:57.838Z,10.96
2023-05-15T00:41:59.060Z,10.92
2023-05-15T00:42:57.676Z,10.92
2023-05-15T00:43:57.596Z,10.87
2023-05-15T00:44:57.514Z,10.92
2023-05-15T00:45:57.432Z,10.95
2023-05-15T00:46:57.435Z,10.96
2023-05-15T00:47:57.332Z,10.88
2023-05-15T00:48:57.190Z,10.91
2023-05-15T00:49:57.110Z,11.02
2023-05-15T00:50:57.034Z,10.96
2023-05-15T00:51:56.967Z,10.85
2023-05-15T00:52:56.868Z,10.84
2023-05-15T00:53:56.942Z,11.00
2023-05-15T00:54:56.710Z,10.98
2023-05-15T00:55:56.628Z,11.03
2023-05-15T00:56:56.558Z,10.99
2023-05-15T00:57:56.468Z,10.96
2023-05-15T00:58:56.382Z,10.98
2023-05-15T00:59:56.304Z,10.95
2023-05-15T01:00:56.303Z,11.02
2023-05-15T01:01:56.201Z,10.93
2023-05-15T01:02:56.188Z,10.92
2023-05-15T01:03:55.978Z,10.93
2023-05-15T01:04:55.906Z,10.92
2023-05-15T01:05:55.823Z,10.81
2023-05-15T01:06:55.752Z,10.91
2023-05-15T01:07:55.728Z,10.92
2023-05-15T01:08:55.575Z,10.83
2023-05-15T01:09:55.491Z,10.95
2023-05-15T01:10:55.440Z,10.80
2023-05-15T01:11:55.331Z,10.84
2023-05-15T01:12:55.274Z,10.85
2023-05-15T01:13:55.167Z,10.84
2023-05-15T01:14:55.091Z,10.77
2023-05-15T01:15:55.019Z,10.80
2023-05-15T01:16:54.927Z,10.81
2023-05-15T01:17:55.239Z,10.78
2023-05-15T01:18:54.826Z,10.80
2023-05-15T01:19:54.867Z,10.74
2023-05-15T01:20:54.628Z,10.87
2023-05-15T01:21:54.527Z,10.84
2023-05-15T01:22:54.455Z,10.83
2023-05-15T01:23:54.425Z,10.83
2023-05-15T01:24:54.295Z,10.74
2023-05-15T01:25:54.220Z,10.73
2023-05-15T01:26:54.123Z,10.80
2023-05-15T01:27:54.035Z,10.80
2023-05-15T01:28:53.959Z,10.80
2023-05-15T01:29:53.873Z,10.65
2023-05-15T01:30:53.839Z,10.63
2023-05-15T01:31:53.757Z,10.71
2023-05-15T01:32:53.678Z,10.80
2023-05-15T01:33:53.554Z,10.74
2023-05-15T01:34:53.468Z,10.56
2023-05-15T01:35:53.404Z,10.46
2023-05-15T01:36:53.302Z,10.59
2023-05-15T01:37:53.224Z,10.58
2023-05-15T01:38:53.157Z,10.55
2023-05-15T01:39:53.087Z,10.49
2023-05-15T01:40:52.981Z,10.44
2023-05-15T01:41:52.898Z,10.43
2023-05-15T01:42:52.817Z,10.36
2023-05-15T01:43:52.737Z,10.43
2023-05-15T01:44:52.664Z,10.31
2023-05-15T01:45:52.608Z,10.46
2023-05-15T01:46:52.528Z,10.34
2023-05-15T01:47:52.466Z,10.36
2023-05-15T01:48:52.337Z,10.22
2023-05-15T01:49:52.496Z,10.31
2023-05-15T01:50:52.166Z,10.26
2023-05-15T01:51:52.093Z,10.23
2023-05-15T01:52:52.005Z,10.16
2023-05-15T01:53:51.926Z,10.16
2023-05-15T01:54:51.850Z,10.21
2023-05-15T01:55:51.787Z,10.25
2023-05-15T01:56:51.682Z,10.13
2023-05-15T01:57:51.601Z,10.18
2023-05-15T01:58:51.519Z,10.00
2023-05-15T01:59:51.483Z,10.11
2023-05-15T02:00:51.367Z,10.15
2023-05-15T02:01:51.288Z,10.22
2023-05-15T02:02:51.278Z,10.11
2023-05-15T02:03:51.212Z,10.06
2023-05-15T02:04:51.028Z,9.92
2023-05-15T02:05:50.947Z,9.98
2023-05-15T02:06:50.880Z,9.97
2023-05-15T02:07:50.782Z,10.04
2023-05-15T02:08:50.701Z,10.00
2023-05-15T02:09:50.980Z,10.03
2023-05-15T02:10:50.542Z,9.96
2023-05-15T02:11:50.482Z,9.88
2023-05-15T02:12:50.412Z,9.80
2023-05-15T02:13:50.296Z,9.71
2023-05-15T02:14:50.233Z,9.70
2023-05-15T02:15:50.157Z,9.71
2023-05-15T02:16:50.116Z,9.72
2023-05-15T02:17:50.022Z,9.70
2023-05-15T02:18:49.935Z,9.56
2023-05-15T02:19:49.806Z,9.53
2023-05-15T02:20:49.734Z,9.58
2023-05-15T02:21:49.647Z,9.58
2023-05-15T02:22:49.572Z,9.53
2023-05-15T02:23:49.480Z,9.53
2023-05-15T02:24:49.398Z,9.60
2023-05-15T02:25:49.315Z,9.58
2023-05-15T02:26:49.236Z,9.58
2023-05-15T02:27:49.179Z,9.56
2023-05-15T02:28:49.073Z,9.58
2023-05-15T02:29:49.006Z,9.61
2023-05-15T02:30:48.911Z,9.72
2023-05-15T02:31:48.863Z,9.72
2023-05-15T02:32:48.847Z,9.67
2023-05-15T02:33:48.662Z,9.70
2023-05-15T02:34:48.582Z,9.80
2023-05-15T02:35:48.499Z,9.74
2023-05-15T02:36:48.417Z,9.70
2023-05-15T02:37:48.334Z,9.60
2023-05-15T02:38:48.316Z,9.58
2023-05-15T02:39:48.470Z,9.56
2023-05-15T02:40:48.094Z,9.58
2023-05-15T02:41:48.008Z,9.53
2023-05-15T02:42:47.925Z,9.61
2023-05-15T02:43:47.916Z,9.58
2023-05-15T02:44:47.757Z,9.61
2023-05-15T02:45:47.939Z,9.61
2023-05-15T02:46:47.593Z,9.65
2023-05-15T02:47:47.559Z,9.61
2023-05-15T02:48:47.441Z,9.58
2023-05-15T02:49:47.360Z,9.53
2023-05-15T02:50:47.263Z,9.55
2023-05-15T02:51:47.188Z,9.50
2023-05-15T02:52:47.097Z,9.43
2023-05-15T02:53:47.019Z,9.47
2023-05-15T02:54:46.937Z,9.43
2023-05-15T02:55:46.863Z,9.49
2023-05-15T02:56:46.872Z,9.43
2023-05-15T02:57:46.691Z,9.40
2023-05-15T02:58:46.605Z,9.38
2023-05-15T02:59:46.540Z,9.32
2023-05-15T03:00:46.941Z,9.35
2023-05-15T03:01:46.387Z,9.37
2023-05-15T03:02:46.306Z,9.24
2023-05-15T03:03:46.440Z,9.20
2023-05-15T03:04:47.082Z,9.22
2023-05-15T04:23:50.196Z,9.58
2023-05-15T04:24:50.098Z,9.74
2023-05-15T04:25:50.012Z,9.70
2023-05-15T04:26:50.010Z,9.72
2023-05-15T04:27:49.862Z,9.86
2023-05-15T04:29:02.733Z,9.82
2023-05-15T04:29:49.684Z,9.82
2023-05-15T04:30:49.598Z,9.89
2023-05-15T04:31:49.552Z,10.00
2023-05-15T04:32:49.475Z,9.93
2023-05-15T04:33:51.289Z,9.92
2023-05-15T04:34:49.271Z,10.06
2023-05-15T04:35:49.189Z,10.03
2023-05-15T04:36:49.110Z,10.15
2023-05-15T04:37:49.297Z,10.11
2023-05-15T04:38:48.944Z,10.21
2023-05-15T04:39:48.884Z,10.28
2023-05-15T04:40:48.784Z,10.28
2023-05-15T04:41:48.708Z,10.44
2023-05-15T04:42:48.622Z,10.60
2023-05-15T04:43:48.553Z,10.59
2023-05-15T04:44:48.469Z,10.56
2023-05-15T04:45:48.395Z,10.47
2023-05-15T04:46:48.293Z,10.43
2023-05-15T04:47:48.475Z,10.39
2023-05-15T04:48:48.133Z,10.44
2023-05-15T04:49:48.070Z,10.36
2023-05-15T04:50:47.978Z,10.49
2023-05-15T04:51:47.897Z,10.41
2023-05-15T04:52:47.807Z,10.43
2023-05-15T04:53:47.726Z,10.43
2023-05-15T04:54:47.643Z,10.36
2023-05-15T04:55:47.586Z,10.41
2023-05-15T04:56:47.481Z,10.40
2023-05-15T04:57:47.421Z,10.39
2023-05-15T04:58:47.316Z,10.44
2023-05-15T04:59:47.242Z,10.60
2023-05-15T05:00:47.156Z,10.58
2023-05-15T05:01:47.166Z,10.60
2023-05-15T05:02:47.016Z,10.73
2023-05-15T05:03:46.954Z,10.71
2023-05-15T05:04:46.835Z,10.73
2023-05-15T05:05:46.759Z,10.78
2023-05-15T05:06:46.881Z,10.85
2023-05-15T05:07:46.596Z,10.85
2023-05-15T05:08:46.512Z,10.83
2023-05-15T05:09:46.434Z,10.80
2023-05-15T05:10:46.354Z,10.88
2023-05-15T05:11:46.408Z,10.84
2023-05-15T05:12:46.189Z,10.85
2023-05-15T05:13:46.109Z,10.84
2023-05-15T05:14:46.031Z,10.84
2023-05-15T05:15:45.965Z,10.81
2023-05-15T05:16:45.862Z,10.83
2023-05-15T05:17:45.899Z,10.84
2023-05-15T05:18:45.739Z,10.96
2023-05-15T05:19:45.630Z,10.96
2023-05-15T05:20:45.549Z,11.00
2023-05-15T05:21:45.470Z,11.06
2023-05-15T05:22:45.382Z,11.06
2023-05-15T05:23:45.304Z,11.08
2023-05-15T05:24:45.252Z,11.16
2023-05-15T05:25:45.143Z,11.21
2023-05-15T05:26:45.061Z,11.28
2023-05-15T05:27:45.011Z,11.38
2023-05-15T05:28:44.900Z,11.32
2023-05-15T05:29:44.818Z,11.39
2023-05-15T05:30:44.740Z,11.41
2023-05-15T05:31:44.825Z,11.49
2023-05-15T05:32:44.609Z,11.57
2023-05-15T05:33:44.506Z,11.60
2023-05-15T05:34:44.426Z,11.68
2023-05-15T05:35:44.340Z,11.67
2023-05-15T05:36:44.259Z,11.68
2023-05-15T05:37:44.194Z,11.68
2023-05-15T05:38:44.098Z,11.71
2023-05-15T05:39:44.018Z,11.90
2023-05-15T05:40:43.937Z,11.79
2023-05-15T05:41:44.305Z,11.89
2023-05-15T05:42:43.773Z,12.05
2023-05-15T05:43:43.786Z,11.97
2023-05-15T05:44:43.618Z,12.18
2023-05-15T05:45:43.535Z,12.11
2023-05-15T05:46:43.495Z,12.19
2023-05-15T05:47:43.404Z,12.19
2023-05-15T05:48:43.303Z,12.26
2023-05-15T05:49:43.219Z,12.26
2023-05-15T05:50:43.137Z,12.33
2023-05-15T05:51:43.057Z,12.41
2023-05-15T05:52:42.978Z,12.48
2023-05-15T05:53:42.899Z,12.60
2023-05-15T05:54:42.969Z,12.66
2023-05-15T05:55:43.086Z,12.61
2023-05-15T05:56:42.663Z,12.73
2023-05-15T05:57:42.620Z,12.86
2023-05-15T05:58:45.782Z,12.82
2023-05-15T05:59:42.440Z,13.04
2023-05-15T06:00:42.350Z,13.10
2023-05-15T06:02:54.919Z,13.10
2023-05-15T06:03:55.151Z,13.15
2023-05-15T06:04:54.606Z,13.27
2023-05-15T06:05:55.755Z,13.38
2023-05-15T06:06:54.501Z,13.55
2023-05-15T06:08:56.314Z,13.71
2023-05-15T06:09:54.580Z,13.65
2023-05-15T06:10:54.130Z,13.68
2023-05-15T06:11:54.058Z,13.65
2023-05-15T06:12:53.977Z,13.73
2023-05-15T06:13:53.906Z,13.77
2023-05-15T06:14:53.940Z,13.84
2023-05-15T06:15:53.747Z,13.94
2023-05-15T06:16:53.826Z,14.03
2023-05-15T06:17:53.623Z,14.10
2023-05-15T06:18:53.535Z,14.10
2023-05-15T06:19:53.730Z,14.19
2023-05-15T06:20:53.359Z,14.19
2023-05-15T06:21:53.569Z,14.41
2023-05-15T06:22:53.201Z,14.35
2023-05-15T06:23:53.414Z,14.44
2023-05-15T06:24:53.043Z,14.54
2023-05-15T06:25:52.963Z,14.68
2023-05-15T06:26:52.884Z,14.72
2023-05-15T06:27:52.810Z,14.80
2023-05-15T06:28:52.728Z,14.80
2023-05-15T06:29:52.650Z,14.91
2023-05-15T06:30:52.854Z,14.87
2023-05-15T06:31:52.497Z,14.85
2023-05-15T06:32:52.437Z,14.78
2023-05-15T06:33:52.371Z,14.79
2023-05-15T06:34:52.266Z,14.94
2023-05-15T06:35:52.192Z,14.85
2023-05-15T06:36:52.109Z,14.87
2023-05-15T06:37:52.044Z,14.95
2023-05-15T06:38:52.014Z,14.91
2023-05-15T06:39:51.881Z,15.05
2023-05-15T06:40:51.841Z,15.03
2023-05-15T06:41:51.726Z,15.10
2023-05-15T06:42:51.652Z,15.13
2023-05-15T06:43:51.574Z,15.24
2023-05-15T06:44:51.496Z,15.24
2023-05-15T06:45:51.452Z,15.34
2023-05-15T06:46:51.483Z,15.38
2023-05-15T06:47:51.305Z,15.42
2023-05-15T06:48:51.192Z,15.57
2023-05-15T06:49:51.111Z,15.45
2023-05-15T06:50:51.039Z,15.43
2023-05-15T06:51:51.006Z,15.39
2023-05-15T06:52:51.081Z,15.42
2023-05-15T06:53:50.807Z,15.60
2023-05-15T06:54:50.729Z,15.66
2023-05-15T06:55:50.648Z,15.78
2023-05-15T06:56:50.579Z,15.82
2023-05-15T06:57:50.514Z,15.82
2023-05-15T06:58:50.525Z,15.81
2023-05-15T06:59:50.344Z,15.75
2023-05-15T07:00:50.265Z,15.82
2023-05-15T07:01:50.202Z,15.73
2023-05-15T07:02:50.295Z,15.67
2023-05-15T07:03:50.036Z,15.86
2023-05-15T07:04:50.032Z,15.81
2023-05-15T07:05:49.881Z,15.89
2023-05-15T07:06:49.808Z,15.99
2023-05-15T07:07:49.749Z,15.91
2023-05-15T07:08:49.652Z,15.89
2023-05-15T07:09:49.922Z,15.97
2023-05-15T07:10:49.852Z,16.01
2023-05-15T07:11:49.424Z,16.04
2023-05-15T07:12:49.345Z,16.08
2023-05-15T07:13:50.716Z,16.34
2023-05-15T07:14:49.193Z,16.27
2023-05-15T07:15:49.114Z,16.41
2023-05-15T09:09:00.171Z,18.57
2023-05-15T09:10:02.590Z,18.47
2023-05-15T09:11:00.138Z,18.49
2023-05-15T09:12:59.796Z,18.44
2023-05-15T09:13:59.686Z,18.39
2023-05-15T09:14:59.599Z,18.49
2023-05-15T09:15:59.522Z,18.59
2023-05-15T09:16:59.542Z,18.55
2023-05-15T09:17:59.404Z,18.49
2023-05-15T09:18:59.347Z,18.43
2023-05-15T09:19:59.216Z,18.40
2023-05-15T09:20:59.140Z,18.53
2023-05-15T09:21:59.073Z,18.42
2023-05-15T09:22:58.990Z,18.53
2023-05-15T09:23:58.912Z,18.69
2023-05-15T09:24:58.894Z,18.83
2023-05-15T09:25:58.777Z,18.97
2023-05-15T09:26:58.687Z,18.90
2023-05-15T09:27:58.617Z,18.89
2023-05-15T09:28:58.599Z,18.89
2023-05-15T09:29:58.467Z,18.97
2023-05-15T09:30:58.385Z,19.02
2023-05-15T09:31:58.398Z,19.14
2023-05-15T09:32:58.294Z,19.11
2023-05-15T09:33:58.155Z,19.21
2023-05-15T09:34:58.083Z,19.28
2023-05-15T09:35:58.014Z,19.39
2023-05-15T09:36:57.983Z,19.42
2023-05-15T09:37:57.858Z,19.53
2023-05-15T09:38:57.793Z,19.55
2023-05-15T09:39:57.706Z,19.55
2023-05-15T09:40:57.654Z,19.53
2023-05-15T09:41:57.556Z,19.43
2023-05-15T09:42:57.491Z,19.50
2023-05-15T09:43:57.407Z,19.51
2023-05-15T09:44:57.337Z,19.63
2023-05-15T09:45:57.276Z,19.63
2023-05-15T09:46:57.216Z,19.72
2023-05-15T09:47:57.172Z,19.61
2023-05-15T09:48:57.033Z,19.71
2023-05-15T09:49:56.958Z,19.71
2023-05-15T09:50:56.893Z,19.78
2023-05-15T09:51:56.804Z,19.87
2023-05-15T09:52:56.736Z,19.71
2023-05-15T09:53:56.674Z,19.73
2023-05-15T09:54:56.587Z,19.76
2023-05-15T09:55:56.719Z,19.75
2023-05-15T09:56:56.464Z,19.75
2023-05-15T09:57:56.385Z,19.73
2023-05-15T09:58:56.299Z,19.75
2023-05-15T09:59:56.207Z,19.73
2023-05-15T10:00:56.399Z,19.78
2023-05-15T10:01:56.082Z,19.91
2023-05-15T10:02:56.026Z,19.93
2023-05-15T10:03:55.910Z,20.08
2023-05-15T10:04:55.989Z,20.09
2023-05-15T10:05:55.814Z,20.33
2023-05-15T10:06:55.790Z,20.38
2023-05-15T10:07:55.618Z,20.57
2023-05-15T10:08:55.543Z,20.38
2023-05-15T10:10:55.942Z,20.13
2023-05-15T10:11:55.774Z,20.13
2023-05-15T10:12:55.264Z,20.13
2023-05-15T10:13:55.369Z,20.15
2023-05-15T10:14:55.097Z,20.33
2023-05-15T10:15:55.094Z,20.40
2023-05-15T10:16:55.243Z,20.61
2023-05-15T10:17:55.827Z,20.40
2023-05-15T10:36:39.634Z,20.94
2023-05-15T10:37:39.529Z,20.94
2023-05-15T10:38:39.709Z,21.17
2023-05-15T10:39:39.588Z,21.06
2023-05-15T10:40:39.308Z,21.16
2023-05-15T10:41:39.249Z,21.12
2023-05-15T10:42:39.163Z,21.26
2023-05-15T10:43:39.107Z,21.29
2023-05-15T10:44:39.021Z,21.51
2023-05-15T10:45:38.943Z,21.29
2023-05-15T10:46:38.884Z,21.21
2023-05-15T10:47:38.840Z,20.84
2023-05-15T10:48:38.923Z,20.74
2023-05-15T10:49:38.653Z,20.46
2023-05-15T10:50:38.598Z,20.50
2023-05-15T10:51:38.508Z,20.49
2023-05-15T10:52:38.467Z,20.43
2023-05-15T10:53:38.367Z,20.16
2023-05-15T10:54:38.290Z,20.35
2023-05-15T10:55:38.222Z,20.27
2023-05-15T10:56:38.139Z,20.27
2023-05-15T10:57:38.071Z,20.40
2023-05-15T10:58:37.993Z,20.33
2023-05-15T10:59:37.930Z,20.27
2023-05-15T11:00:37.849Z,20.42
2023-05-15T11:01:37.889Z,20.40
2023-05-15T11:02:37.711Z,20.47
2023-05-15T11:03:48.192Z,20.56
2023-05-15T11:04:37.558Z,20.65
2023-05-15T11:05:37.479Z,20.62
2023-05-15T11:06:37.415Z,20.49
2023-05-15T11:07:37.384Z,20.53
2023-05-15T11:08:37.284Z,20.54
2023-05-15T11:09:37.211Z,20.65
2023-05-15T11:10:37.116Z,20.75
2023-05-15T11:11:37.038Z,20.79
2023-05-15T11:12:36.965Z,20.66
2023-05-15T11:13:37.159Z,20.71
2023-05-15T11:14:36.821Z,20.65
2023-05-15T11:15:36.765Z,20.82
2023-05-15T11:16:36.714Z,20.79
2023-05-15T11:17:36.685Z,20.91
2023-05-15T11:18:36.624Z,20.86
2023-05-15T11:19:36.463Z,20.87
2023-05-15T11:20:37.170Z,20.84
2023-05-15T11:21:36.315Z,20.98
2023-05-15T11:22:36.363Z,20.94
2023-05-15T11:23:36.219Z,21.14
2023-05-15T11:24:36.115Z,21.42
2023-05-15T11:25:36.021Z,21.48
2023-05-15T11:26:35.952Z,21.48
2023-05-15T11:27:36.181Z,21.54
2023-05-15T11:28:35.804Z,21.54
2023-05-15T11:29:35.730Z,21.30
2023-05-15T11:30:35.668Z,21.31
2023-05-15T11:31:35.761Z,21.12
2023-05-15T11:32:35.530Z,20.96
2023-05-15T11:33:35.446Z,20.82
2023-05-15T11:34:35.385Z,20.80
2023-05-15T11:35:35.299Z,20.74
2023-05-15T11:36:35.820Z,20.53
2023-05-15T11:37:35.161Z,20.16
2023-05-15T11:38:35.086Z,19.68
2023-05-15T11:39:35.011Z,19.11
2023-05-15T11:40:34.983Z,18.61
2023-05-15T11:41:34.869Z,18.31
2023-05-15T11:42:34.790Z,17.89
2023-05-15T11:43:34.774Z,17.33
2023-05-15T11:44:34.646Z,17.03
2023-05-15T11:45:34.603Z,16.56
2023-05-15T11:46:34.720Z,16.29
2023-05-15T11:47:34.450Z,16.01
2023-05-15T11:48:34.352Z,15.55
2023-05-15T11:49:34.309Z,15.45
2023-05-15T11:50:34.202Z,15.28
2023-05-15T11:51:34.132Z,15.12
2023-05-15T11:52:34.500Z,15.10
2023-05-15T11:53:33.973Z,15.03
2023-05-15T11:54:33.899Z,14.88
2023-05-15T11:55:33.823Z,14.74
2023-05-15T12:01:22.893Z,14.47
2023-05-15T12:02:22.516Z,14.49
2023-05-15T12:03:22.832Z,14.39
2023-05-15T12:04:22.930Z,14.42
2023-05-15T12:05:22.303Z,14.24
2023-05-15T12:06:22.238Z,14.29
2023-05-15T12:07:22.118Z,14.38
2023-05-15T13:33:49.431Z,19.71
2023-05-15T13:34:49.335Z,19.78
2023-05-15T13:35:49.306Z,19.93
2023-05-15T13:36:49.191Z,19.94
2023-05-15T13:37:49.119Z,20.03
2023-05-15T13:38:49.048Z,19.98
2023-05-15T13:39:49.400Z,19.86
2023-05-15T13:40:48.955Z,19.65
2023-05-15T13:41:48.834Z,19.43
2023-05-15T13:42:48.765Z,18.97
2023-05-15T13:43:48.696Z,18.40
2023-05-15T13:44:48.627Z,18.32
2023-05-15T13:45:48.600Z,18.04
2023-05-15T13:46:48.516Z,18.02
2023-05-15T13:47:48.505Z,18.06
2023-05-15T13:48:48.335Z,18.02
2023-05-15T13:49:48.290Z,17.91
2023-05-15T13:50:48.198Z,18.04
2023-05-15T13:51:48.111Z,17.76
2023-05-15T13:52:48.036Z,17.67
2023-05-15T13:53:47.968Z,17.55
2023-05-15T13:54:47.890Z,17.30
2023-05-15T13:55:47.826Z,17.07
2023-05-15T13:56:47.754Z,17.11
2023-05-15T13:57:47.670Z,16.93
2023-05-15T13:59:30.183Z,16.84
2023-05-15T14:00:30.168Z,16.82
2023-05-15T14:01:36.201Z,16.71
2023-05-15T14:02:29.900Z,16.74
2023-05-15T14:03:29.886Z,16.63
2023-05-15T14:04:29.714Z,16.63
2023-05-15T14:05:33.705Z,16.75
2023-05-15T14:06:29.559Z,16.85
2023-05-15T14:07:30.094Z,16.84
2023-05-15T14:08:29.422Z,16.80
2023-05-15T14:09:29.341Z,16.85
2023-05-15T14:10:29.264Z,16.84
2023-05-15T14:11:29.185Z,16.80
2023-05-15T14:12:29.148Z,16.77
2023-05-15T14:13:29.036Z,16.74
2023-05-15T14:14:28.957Z,16.88
2023-05-15T14:15:29.084Z,16.81
2023-05-15T14:16:28.829Z,16.89
2023-05-15T14:17:28.805Z,16.93
2023-05-15T14:18:31.206Z,17.10
2023-05-15T14:19:29.055Z,17.05
2023-05-15T15:05:52.715Z,21.81
2023-05-15T15:47:08.359Z,17.39
2023-05-15T15:48:07.843Z,17.36
2023-05-15T15:49:07.755Z,17.21
2023-05-15T15:50:08.006Z,17.26
2023-05-15T15:51:07.581Z,17.26
2023-05-15T15:52:59.999Z,17.29
2023-05-15T15:53:59.923Z,17.39
2023-05-15T15:54:59.908Z,17.46
2023-05-15T15:55:59.826Z,17.44
2023-05-15T15:56:59.721Z,17.43
2023-05-15T15:57:59.633Z,17.40
2023-05-15T15:58:59.551Z,17.39
2023-05-15T15:59:59.481Z,17.44
2023-05-15T16:00:59.520Z,17.54
2023-05-15T16:03:27.089Z,17.66
2023-05-15T16:04:26.766Z,17.77
2023-05-15T16:05:26.870Z,17.91
2023-05-15T16:06:26.618Z,17.96
2023-05-15T16:07:26.550Z,17.92
2023-05-15T16:08:26.665Z,17.89
2023-05-15T16:09:26.391Z,17.96
2023-05-15T16:10:26.321Z,18.00
2023-05-15T16:11:26.245Z,18.02
2023-05-15T16:12:26.166Z,18.14
2023-05-15T16:13:26.091Z,18.24
2023-05-15T16:35:46.634Z,17.94
2023-05-15T16:36:46.365Z,17.94
2023-05-15T16:37:46.290Z,17.74
2023-05-15T16:38:46.216Z,17.66
2023-05-15T16:39:46.145Z,17.57
2023-05-15T16:40:46.243Z,17.46
2023-05-15T16:41:45.993Z,17.55
2023-05-15T16:42:45.913Z,17.40
2023-05-15T16:43:45.844Z,17.39
2023-05-15T16:49:45.792Z,17.23
2023-05-15T16:50:44.523Z,17.20
2023-05-15T16:51:44.470Z,17.15
2023-05-15T16:52:44.388Z,17.26
2023-05-15T16:53:44.599Z,17.18
2023-05-15T16:54:44.219Z,17.14
2023-05-15T16:55:44.245Z,17.08
2023-05-15T16:56:44.068Z,17.05
2023-05-15T16:57:44.005Z,17.08
2023-05-15T16:58:43.920Z,16.99
2023-05-15T16:59:43.841Z,16.98
2023-05-15T17:00:43.769Z,16.93
2023-05-15T17:01:43.732Z,16.98
2023-05-15T17:02:43.751Z,16.95
2023-05-15T17:03:43.636Z,17.03
2023-05-15T17:22:37.923Z,16.38
2023-05-15T17:23:37.807Z,16.35
2023-05-15T17:24:50.135Z,16.34
2023-05-15T17:25:37.904Z,16.34
2023-05-15T17:26:37.575Z,16.37
2023-05-15T17:27:37.504Z,16.34
2023-05-15T17:28:39.016Z,16.27
2023-05-15T17:29:37.347Z,16.29
2023-05-15T17:30:37.274Z,16.08
2023-05-15T17:31:37.685Z,15.96
2023-05-15T17:32:37.344Z,15.89
2023-05-15T17:33:37.040Z,15.89
2023-05-15T17:37:09.409Z,15.91
2023-05-15T17:38:09.347Z,15.83
2023-05-15T17:39:09.252Z,15.86
2023-05-15T17:40:09.171Z,15.94
2023-05-15T17:43:35.191Z,15.88
2023-05-15T17:44:34.658Z,15.92
2023-05-15T17:45:34.621Z,15.89
2023-05-15T17:46:34.540Z,15.86
2023-05-15T17:50:36.882Z,15.71
2023-05-15T17:51:35.016Z,15.75
2023-05-15T17:52:34.940Z,15.75
2023-05-15T17:53:34.888Z,15.66
2023-05-15T17:54:34.861Z,15.70
2023-05-15T17:55:34.720Z,15.63
2023-05-15T17:56:34.633Z,15.67
2023-05-15T17:57:34.550Z,15.66
2023-05-15T17:58:34.478Z,15.66
2023-05-15T17:59:34.806Z,15.67
2023-05-15T18:00:34.322Z,15.60
2023-05-15T18:01:34.286Z,15.52
2023-05-15T18:02:34.505Z,15.43
2023-05-15T18:03:34.163Z,15.46
2023-05-15T18:04:34.051Z,15.41
2023-05-15T18:05:33.935Z,15.34
2023-05-15T18:06:33.894Z,15.34
2023-05-15T18:07:34.584Z,15.38
2023-05-15T18:08:33.706Z,15.24
2023-05-15T18:09:33.651Z,15.28
2023-05-15T18:10:33.548Z,15.24
2023-05-15T18:11:33.468Z,15.18
2023-05-15T18:12:33.392Z,15.10
2023-05-15T18:13:33.316Z,15.18
2023-05-15T18:14:33.244Z,15.20
2023-05-15T18:15:33.189Z,15.23
2023-05-15T18:16:33.102Z,15.20
2023-05-15T18:17:33.129Z,15.30
2023-05-15T18:18:33.002Z,15.41
2023-05-15T18:19:32.889Z,15.31
2023-05-15T18:20:32.827Z,15.39
2023-05-15T18:21:34.166Z,15.41
2023-05-15T18:22:32.656Z,15.24
2023-05-15T18:23:32.567Z,15.35
2023-05-15T18:24:32.905Z,15.39
2023-05-15T18:25:32.978Z,15.39
2023-05-15T18:26:32.345Z,15.33
2023-05-15T18:28:32.156Z,15.21
2023-05-15T18:29:32.128Z,15.24
2023-05-15T18:30:32.049Z,15.09
2023-05-15T18:31:31.997Z,15.15
2023-05-15T18:32:31.864Z,15.21
2023-05-15T18:33:31.815Z,15.12
2023-05-15T18:34:31.688Z,15.15
2023-05-15T18:35:31.609Z,15.09
2023-05-15T18:36:31.531Z,15.05
2023-05-15T18:37:31.505Z,15.02
2023-05-15T18:38:31.627Z,14.98
2023-05-15T18:39:31.301Z,15.05
2023-05-15T18:40:31.226Z,15.02
2023-05-15T18:41:31.167Z,15.02
2023-05-15T18:42:31.068Z,14.87
2023-05-15T18:43:30.994Z,14.84
2023-05-15T18:44:30.915Z,14.85
2023-05-15T18:45:30.870Z,14.80
2023-05-15T18:46:30.925Z,14.71
2023-05-15T18:47:30.728Z,14.79
2023-05-15T18:51:31.443Z,14.60
2023-05-15T18:55:12.654Z,14.47
2023-05-15T18:56:12.571Z,14.42
2023-05-15T18:57:12.627Z,14.53
2023-05-15T18:58:12.620Z,14.49
2023-05-15T19:00:13.031Z,14.49
2023-05-15T19:01:12.175Z,14.36
2023-05-15T19:02:12.252Z,14.35
2023-05-15T19:03:12.119Z,14.38
2023-05-15T19:04:11.914Z,14.32
2023-05-15T19:05:11.834Z,14.31
2023-05-15T19:06:12.021Z,14.32
2023-05-15T19:07:12.113Z,14.31
2023-05-15T19:08:11.614Z,14.23
2023-05-15T19:10:11.485Z,14.32
2023-05-15T19:11:11.365Z,14.24
2023-05-15T19:12:11.303Z,14.21
2023-05-15T19:15:11.116Z,14.03
2023-05-15T19:16:10.992Z,13.98
2023-05-15T19:17:10.894Z,13.98
2023-05-15T19:18:53.332Z,13.99
2023-05-15T19:20:50.708Z,13.91
2023-05-15T19:21:50.655Z,13.92
2023-05-15T19:22:52.176Z,13.86
2023-05-15T20:21:17.182Z,12.97
2023-05-15T20:22:16.926Z,13.03
2023-05-15T20:23:16.845Z,13.00
2023-05-15T20:48:20.503Z,12.91
2023-05-15T20:49:20.414Z,12.96
2023-05-15T20:50:20.320Z,12.86
2023-05-15T20:51:20.238Z,12.82
2023-05-15T20:52:20.166Z,12.84
2023-05-15T20:53:20.088Z,12.81
2023-05-15T20:54:23.080Z,12.84
2023-05-15T21:03:00.100Z,12.64
2023-05-15T21:04:00.070Z,12.81
2023-05-15T21:04:59.852Z,12.74
2023-05-15T21:55:05.554Z,12.61
2023-05-15T21:56:05.453Z,12.64
2023-05-15T21:57:05.365Z,12.63
2023-05-15T21:58:05.291Z,12.64
2023-05-15T21:59:05.208Z,12.69
2023-05-15T22:00:05.128Z,12.73
2023-05-15T22:01:05.048Z,12.70
2023-05-15T22:02:05.115Z,12.70
2023-05-15T22:03:04.934Z,12.82
2023-05-15T22:04:05.336Z,12.67
2023-05-15T22:05:04.810Z,12.71
2023-05-15T22:06:04.649Z,12.69
2023-05-15T22:07:04.567Z,12.73
2023-05-15T22:08:04.493Z,12.74
2023-05-15T22:09:04.420Z,12.78
2023-05-15T22:10:04.334Z,12.61
2023-05-15T22:11:04.272Z,12.77
2023-05-15T22:12:04.171Z,12.71
2023-05-15T22:13:04.097Z,12.71
2023-05-15T22:14:04.006Z,12.70
2023-05-15T22:15:03.938Z,12.78
2023-05-15T22:16:03.932Z,12.77
2023-05-15T22:17:03.774Z,12.69
2023-05-15T22:18:03.711Z,12.77
2023-05-15T22:19:03.636Z,12.74
2023-05-15T22:20:03.550Z,12.85
2023-05-15T22:21:03.537Z,12.85
2023-05-15T22:22:03.404Z,12.81
2023-05-15T22:23:03.307Z,12.82
2023-05-15T22:24:03.221Z,12.89
2023-05-15T22:25:03.134Z,12.79
2023-05-15T22:26:03.066Z,12.88
2023-05-15T22:27:03.010Z,12.82
2023-05-15T22:28:02.902Z,12.81
2023-05-15T22:29:02.823Z,12.79
2023-05-15T22:30:02.750Z,12.84
2023-05-15T22:31:02.665Z,12.82
2023-05-15T22:32:02.627Z,12.78
2023-05-15T22:33:02.609Z,12.78
2023-05-15T22:34:02.421Z,12.96
2023-05-15T22:35:02.345Z,12.86
2023-05-15T22:36:02.262Z,12.88
2023-05-15T22:37:02.213Z,12.85
2023-05-15T22:38:02.110Z,12.89
2023-05-15T22:39:02.029Z,12.91
2023-05-15T22:40:01.999Z,12.97
2023-05-15T22:41:01.866Z,12.94
2023-05-15T22:42:01.795Z,12.99
2023-05-15T22:43:01.731Z,13.02
2023-05-15T22:44:01.630Z,12.97
2023-05-15T22:45:01.554Z,13.04
2023-05-15T22:46:01.558Z,12.97
2023-05-15T22:47:01.409Z,12.99
2023-05-15T22:48:01.405Z,13.09
2023-05-15T22:49:01.228Z,13.10
2023-05-15T22:50:01.188Z,13.06
2023-05-15T22:51:01.170Z,12.96
2023-05-15T22:52:00.994Z,13.03
2023-05-15T22:53:01.371Z,12.97
2023-05-15T22:54:00.833Z,13.06
2023-05-15T22:55:00.755Z,12.99
2023-05-15T22:56:00.677Z,13.02
2023-05-15T22:57:00.603Z,13.03
2023-05-15T22:58:00.517Z,12.86
2023-05-15T22:59:00.465Z,12.92
2023-05-15T23:00:00.353Z,13.03
2023-05-15T23:01:00.300Z,12.86
2023-05-15T23:02:00.199Z,12.84
2023-05-15T23:03:00.206Z,12.82
2023-05-15T23:04:00.071Z,12.81
2023-05-15T23:05:00.157Z,12.82
2023-05-15T23:05:59.894Z,12.82
2023-05-15T23:06:59.816Z,12.79
2023-05-15T23:07:59.719Z,12.70